createdAt,value
2022-11-03T00:01:56.476Z,4.28
2022-11-03T00:04:23.556Z,4.80
2022-11-03T00:06:51.959Z,4.15
2022-11-03T00:09:19.953Z,3.95
2022-11-03T00:11:48.819Z,4.18
2022-11-03T00:14:15.484Z,4.63
2022-11-03T00:16:42.411Z,4.80
2022-11-03T00:19:10.303Z,5.13
2022-11-03T00:21:37.718Z,4.43
2022-11-03T00:24:04.567Z,4.85
2022-11-03T00:26:32.862Z,3.85
2022-11-03T00:29:01.806Z,4.18
2022-11-03T00:31:30.529Z,3.97
2022-11-03T00:33:58.382Z,3.78
2022-11-03T00:36:33.668Z,4.55
2022-11-03T00:39:00.357Z,4.35
2022-11-03T00:41:27.772Z,4.57
2022-11-03T00:43:54.737Z,4.43
2022-11-03T00:46:23.020Z,4.13
2022-11-03T00:48:50.034Z,4.85
2022-11-03T00:51:27.662Z,5.10
2022-11-03T00:53:56.540Z,4.35
2022-11-03T00:56:25.804Z,4.85
2022-11-03T00:58:53.634Z,4.65
2022-11-03T01:01:31.969Z,3.90
2022-11-03T01:04:18.133Z,4.75
2022-11-03T01:06:51.833Z,4.03
2022-11-03T01:09:30.052Z,3.83
2022-11-03T01:12:05.729Z,4.68
2022-11-03T01:14:39.500Z,3.90
2022-11-03T01:17:08.023Z,4.22
2022-11-03T01:19:34.680Z,4.63
2022-11-03T01:22:02.663Z,3.78
2022-11-03T01:24:31.805Z,4.35
2022-11-03T01:26:58.539Z,4.15
2022-11-03T01:29:25.223Z,4.18
2022-11-03T01:31:51.907Z,3.83
2022-11-03T01:34:20.256Z,4.10
2022-11-03T01:36:47.673Z,3.83
2022-11-03T01:39:16.335Z,3.90
2022-11-03T01:41:45.799Z,3.60
2022-11-03T01:44:12.405Z,4.07
2022-11-03T01:46:44.905Z,3.90
2022-11-03T01:49:19.976Z,4.40
2022-11-03T01:51:51.546Z,4.15
2022-11-03T01:54:20.003Z,3.90
2022-11-03T01:56:47.277Z,4.25
2022-11-03T01:59:15.996Z,3.38
2022-11-03T02:01:43.930Z,3.25
2022-11-03T02:04:16.803Z,3.53
2022-11-03T02:06:43.547Z,3.50
2022-11-03T02:09:11.278Z,3.10
2022-11-03T02:11:56.975Z,4.07
2022-11-03T02:14:23.642Z,3.33
2022-11-03T02:16:53.674Z,3.40
2022-11-03T02:19:46.352Z,4.43
2022-11-03T02:22:43.355Z,3.03
2022-11-03T02:25:18.787Z,4.05
2022-11-03T02:27:45.728Z,2.95
2022-11-03T02:30:13.018Z,3.38
2022-11-03T02:32:52.243Z,3.42
2022-11-03T02:35:36.378Z,3.15
2022-11-03T02:38:06.081Z,3.45
2022-11-03T02:40:43.127Z,3.42
2022-11-03T02:43:10.347Z,3.40
2022-11-03T02:45:37.944Z,3.10
2022-11-03T02:48:05.275Z,2.88
2022-11-03T02:50:33.713Z,2.97
2022-11-03T02:53:00.619Z,3.17
2022-11-03T02:55:52.361Z,3.20
2022-11-03T02:58:40.873Z,3.80
2022-11-03T03:01:34.557Z,2.97
2022-11-03T03:04:04.541Z,3.53
2022-11-03T03:06:40.492Z,3.40
2022-11-03T03:09:10.665Z,3.40
2022-11-03T03:11:41.303Z,3.45
2022-11-03T03:14:14.497Z,3.60
2022-11-03T03:19:29.337Z,3.13
2022-11-03T03:21:58.294Z,3.25
2022-11-03T03:24:37.554Z,3.28
2022-11-03T03:27:07.520Z,2.53
2022-11-03T03:29:39.960Z,3.40
2022-11-03T03:32:09.050Z,3.88
2022-11-03T03:34:38.411Z,2.92
2022-11-03T03:37:05.943Z,3.70
2022-11-03T03:39:36.751Z,2.75
2022-11-03T03:42:04.536Z,3.00
2022-11-03T03:44:32.550Z,3.65
2022-11-03T03:47:03.377Z,2.50
2022-11-03T03:49:30.047Z,3.33
2022-11-03T03:51:56.782Z,3.00
2022-11-03T03:54:23.504Z,3.05
2022-11-03T03:56:59.129Z,3.70
2022-11-03T03:59:25.873Z,3.22
2022-11-03T04:01:52.859Z,3.28
2022-11-03T04:04:19.653Z,3.35
2022-11-03T04:06:46.292Z,3.03
2022-11-03T04:09:13.137Z,3.05
2022-11-03T04:11:58.696Z,2.47
2022-11-03T04:14:44.000Z,3.47
2022-11-03T04:17:36.736Z,2.63
2022-11-03T04:20:22.990Z,2.78
2022-11-03T04:22:49.745Z,2.42
2022-11-03T04:25:16.359Z,2.60
2022-11-03T04:27:44.437Z,4.53
2022-11-03T04:30:19.349Z,2.63
2022-11-03T04:32:50.290Z,3.40
2022-11-03T04:35:28.308Z,2.70
2022-11-03T04:37:58.411Z,3.10
2022-11-03T04:40:25.401Z,3.13
2022-11-03T04:42:52.262Z,3.20
2022-11-03T04:45:38.239Z,2.92
2022-11-03T04:48:14.225Z,3.15
2022-11-03T04:50:45.669Z,3.00
2022-11-03T04:53:14.756Z,3.33
2022-11-03T04:55:42.119Z,3.70
2022-11-03T04:58:23.784Z,3.47
2022-11-03T05:00:52.377Z,3.72
2022-11-03T05:03:32.745Z,3.40
2022-11-03T05:06:02.518Z,3.13
2022-11-03T05:08:29.228Z,2.88
2022-11-03T05:10:55.978Z,2.67
2022-11-03T05:13:28.045Z,3.03
2022-11-03T05:16:04.416Z,2.85
2022-11-03T05:18:33.309Z,3.60
2022-11-03T05:21:02.162Z,3.10
2022-11-03T05:23:31.317Z,3.78
2022-11-03T05:25:58.710Z,2.50
2022-11-03T05:28:30.884Z,3.22
2022-11-03T05:30:57.650Z,3.30
2022-11-03T05:33:27.432Z,3.15
2022-11-03T05:35:55.518Z,4.43
2022-11-03T05:38:23.164Z,5.35
2022-11-03T05:40:52.550Z,5.28
2022-11-03T05:43:20.508Z,4.85
2022-11-03T05:45:50.118Z,4.20
2022-11-03T05:48:26.636Z,2.95
2022-11-03T05:50:53.323Z,3.25
2022-11-03T05:53:31.974Z,2.72
2022-11-03T05:56:01.114Z,3.08
2022-11-03T05:58:29.619Z,3.33
2022-11-03T06:00:57.683Z,3.65
2022-11-03T06:03:27.140Z,2.80
2022-11-03T06:05:54.120Z,2.55
2022-11-03T06:10:58.432Z,2.53
2022-11-03T06:13:31.207Z,2.90
2022-11-03T06:16:01.465Z,2.75
2022-11-03T06:18:34.984Z,2.92
2022-11-03T06:21:22.816Z,3.03
2022-11-03T06:23:49.471Z,3.25
2022-11-03T06:26:22.746Z,3.20
2022-11-03T06:31:30.123Z,2.85
2022-11-03T06:33:57.863Z,2.80
2022-11-03T06:36:32.515Z,2.92
2022-11-03T06:39:04.394Z,3.38
2022-11-03T06:41:32.669Z,2.88
2022-11-03T06:44:02.146Z,3.15
2022-11-03T06:46:29.857Z,3.60
2022-11-03T06:48:59.202Z,3.30
2022-11-03T06:51:30.515Z,4.20
2022-11-03T06:54:00.494Z,3.30
2022-11-03T06:56:34.391Z,3.90
2022-11-03T06:59:01.122Z,3.95
2022-11-03T07:01:35.209Z,3.40
2022-11-03T07:04:21.829Z,4.88
2022-11-03T07:06:52.949Z,3.83
2022-11-03T07:09:23.216Z,3.83
2022-11-03T07:11:55.884Z,5.15
2022-11-03T07:14:28.547Z,4.65
2022-11-03T07:17:02.937Z,4.82
2022-11-03T07:19:33.480Z,4.88
2022-11-03T07:22:05.237Z,4.57
2022-11-03T07:24:35.709Z,5.43
2022-11-03T07:27:21.823Z,5.65
2022-11-03T07:29:49.706Z,5.10
2022-11-03T07:32:19.250Z,5.43
2022-11-03T07:34:47.413Z,5.57
2022-11-03T07:37:19.421Z,4.93
2022-11-03T07:39:46.792Z,5.30
2022-11-03T07:42:22.143Z,4.85
2022-11-03T07:44:52.354Z,5.38
2022-11-03T07:47:20.448Z,5.22
2022-11-03T07:49:47.341Z,5.50
2022-11-03T07:52:16.751Z,5.57
2022-11-03T07:54:43.415Z,5.10
2022-11-03T07:57:21.370Z,5.93
2022-11-03T07:59:49.566Z,5.50
2022-11-03T08:02:33.751Z,5.07
2022-11-03T08:05:01.120Z,6.47
2022-11-03T08:07:28.441Z,6.25
2022-11-03T08:09:55.586Z,6.35
2022-11-03T08:12:22.263Z,6.38
2022-11-03T08:14:49.005Z,6.70
2022-11-03T08:17:15.770Z,6.43
2022-11-03T08:19:42.825Z,5.93
2022-11-03T08:22:09.512Z,5.47
2022-11-03T08:24:36.159Z,6.00
2022-11-03T08:27:03.528Z,6.50
2022-11-03T08:29:30.384Z,5.50
2022-11-03T08:31:57.071Z,6.00
2022-11-03T08:34:23.725Z,6.13
2022-11-03T08:36:50.358Z,5.95
2022-11-03T08:39:17.333Z,5.72
2022-11-03T08:41:44.189Z,6.28
2022-11-03T08:44:10.855Z,6.30
2022-11-03T08:46:37.557Z,5.15
2022-11-03T08:49:04.232Z,6.53
2022-11-03T08:51:30.910Z,5.80
2022-11-03T08:53:57.571Z,5.78
2022-11-03T08:56:24.278Z,5.00
2022-11-03T08:58:51.224Z,5.90
2022-11-03T09:01:18.380Z,5.53
2022-11-03T09:03:45.201Z,6.22
2022-11-03T09:06:11.990Z,5.97
2022-11-03T09:11:25.394Z,5.78
2022-11-03T09:13:52.073Z,6.55
2022-11-03T09:16:18.781Z,7.30
2022-11-03T09:18:45.589Z,6.03
2022-11-03T09:21:13.363Z,7.05
2022-11-03T09:23:40.249Z,7.03
2022-11-03T09:26:07.089Z,6.05
2022-11-03T09:28:33.759Z,6.80
2022-11-03T09:31:00.405Z,6.68
2022-11-03T09:33:27.124Z,6.82
2022-11-03T09:35:53.799Z,5.53
2022-11-03T09:38:20.460Z,6.35
2022-11-03T09:43:19.412Z,6.47
2022-11-03T09:45:46.068Z,6.13
2022-11-03T09:48:13.112Z,6.20
2022-11-03T09:50:39.984Z,5.60
2022-11-03T09:53:09.195Z,7.72
2022-11-03T09:55:36.048Z,7.05
2022-11-03T09:58:10.537Z,5.72
2022-11-03T10:00:37.212Z,7.25
2022-11-03T10:03:05.328Z,5.72
2022-11-03T10:05:32.825Z,6.30
2022-11-03T10:08:02.970Z,6.60
2022-11-03T10:10:30.343Z,5.80
2022-11-03T10:12:57.134Z,5.43
2022-11-03T10:15:24.850Z,4.80
2022-11-03T10:17:51.895Z,5.60
2022-11-03T10:20:20.737Z,4.40
2022-11-03T10:22:51.192Z,4.75
2022-11-03T10:25:37.051Z,4.88
2022-11-03T10:28:15.647Z,5.07
2022-11-03T10:31:13.060Z,5.85
2022-11-03T10:34:00.586Z,4.05
2022-11-03T10:36:32.067Z,4.82
2022-11-03T10:38:58.845Z,4.72
2022-11-03T10:41:27.635Z,5.45
2022-11-03T10:44:00.596Z,4.70
2022-11-03T10:49:15.867Z,5.15
2022-11-03T10:51:43.826Z,4.35
2022-11-03T10:54:13.001Z,5.43
2022-11-03T10:56:39.628Z,6.00
2022-11-03T10:59:06.383Z,5.97
2022-11-03T11:01:33.459Z,6.00
2022-11-03T11:04:00.368Z,5.97
2022-11-03T11:06:29.435Z,5.80
2022-11-03T11:09:01.564Z,6.30
2022-11-03T11:11:29.017Z,4.85
2022-11-03T11:14:30.582Z,5.47
2022-11-03T11:16:59.127Z,5.95
2022-11-03T11:19:27.412Z,4.90
2022-11-03T11:21:53.988Z,5.88
2022-11-03T11:24:42.513Z,4.95
2022-11-03T11:27:31.822Z,6.25
2022-11-03T11:29:59.321Z,5.53
2022-11-03T11:32:44.641Z,5.53
2022-11-03T11:35:17.270Z,6.72
2022-11-03T11:37:44.285Z,5.45
2022-11-03T11:40:35.012Z,6.35
2022-11-03T11:43:11.541Z,6.65
2022-11-03T11:46:15.949Z,7.25
2022-11-03T11:48:42.604Z,5.55
2022-11-03T11:51:11.165Z,6.13
2022-11-03T11:53:39.928Z,7.35
2022-11-03T11:56:09.874Z,7.45
2022-11-03T11:58:44.846Z,8.30
2022-11-03T12:01:21.979Z,7.82
2022-11-03T12:03:49.640Z,8.63
2022-11-03T12:06:16.479Z,6.85
2022-11-03T12:08:44.088Z,6.68
2022-11-03T12:11:12.496Z,7.18
2022-11-03T12:13:47.479Z,5.75
2022-11-03T12:16:30.432Z,6.03
2022-11-03T12:18:59.892Z,6.25
2022-11-03T12:21:47.465Z,7.05
2022-11-03T12:24:50.191Z,6.70
2022-11-03T12:27:19.719Z,6.47
2022-11-03T12:29:46.351Z,6.90
2022-11-03T12:32:25.953Z,7.30
2022-11-03T12:34:59.691Z,6.05
2022-11-03T12:37:26.339Z,7.13
2022-11-03T12:39:53.036Z,6.75
2022-11-03T12:42:20.986Z,7.32
2022-11-03T12:44:47.734Z,6.03
2022-11-03T12:47:14.426Z,6.05
2022-11-03T12:49:41.086Z,6.63
2022-11-03T12:52:08.695Z,6.63
2022-11-03T12:54:35.557Z,6.22
2022-11-03T12:57:05.289Z,5.75
2022-11-03T12:59:31.949Z,6.32
2022-11-03T13:01:58.686Z,6.35
2022-11-03T13:04:25.571Z,6.28
2022-11-03T13:06:52.199Z,7.32
2022-11-03T13:09:18.835Z,5.88
2022-11-03T13:12:04.116Z,6.10
2022-11-03T13:14:30.789Z,6.00
2022-11-03T13:16:57.494Z,6.38
2022-11-03T13:19:24.281Z,6.05
2022-11-03T13:21:50.949Z,5.60
2022-11-03T13:24:17.655Z,6.15
2022-11-03T13:26:44.312Z,6.63
2022-11-03T13:29:11.211Z,6.88
2022-11-03T13:31:37.867Z,5.65
2022-11-03T13:34:04.521Z,5.97
2022-11-03T13:36:31.569Z,6.18
2022-11-03T13:38:58.351Z,5.53
2022-11-03T13:41:25.030Z,5.35
2022-11-03T13:43:51.790Z,5.30
2022-11-03T13:46:18.522Z,5.65
2022-11-03T13:51:32.277Z,5.15
2022-11-03T13:59:32.394Z,4.63
2022-11-03T14:04:46.482Z,4.78
2022-11-03T14:07:13.218Z,4.45
2022-11-03T14:09:39.870Z,4.53
2022-11-03T14:12:25.313Z,3.78
2022-11-03T14:14:52.088Z,4.22
2022-11-03T14:17:18.727Z,4.45
2022-11-03T14:19:51.764Z,4.45
2022-11-03T14:22:19.963Z,3.92
2022-11-03T14:24:46.644Z,4.25
2022-11-03T14:27:13.572Z,4.55
2022-11-03T14:29:40.433Z,3.83
2022-11-03T14:32:07.184Z,4.93
2022-11-03T14:34:34.042Z,5.63
2022-11-03T14:37:00.900Z,4.47
2022-11-03T14:39:27.739Z,4.63
2022-11-03T14:42:06.383Z,4.80
2022-11-03T14:44:35.461Z,3.80
2022-11-03T14:47:03.152Z,4.60
2022-11-03T14:49:30.730Z,3.67
2022-11-03T14:51:57.968Z,4.70
2022-11-03T14:54:24.689Z,4.80
2022-11-03T14:56:51.937Z,5.80
2022-11-03T14:59:18.806Z,6.10
2022-11-03T15:01:46.352Z,6.85
2022-11-03T15:04:13.357Z,5.40
2022-11-03T15:06:41.048Z,5.95
2022-11-03T15:11:40.815Z,10.27
2022-11-03T15:14:07.756Z,13.05
2022-11-03T15:16:37.748Z,7.63
2022-11-03T15:19:05.306Z,5.57
2022-11-03T15:21:32.445Z,5.82
2022-11-03T15:26:45.856Z,4.13
2022-11-03T15:29:12.565Z,3.72
2022-11-03T15:31:44.422Z,5.65
2022-11-03T15:34:14.051Z,5.25
2022-11-03T15:36:40.689Z,3.78
2022-11-03T15:39:07.349Z,4.10
2022-11-03T15:41:34.069Z,3.80
2022-11-03T15:44:00.692Z,4.20
2022-11-03T15:46:27.332Z,4.60
2022-11-03T15:48:56.323Z,5.28
2022-11-03T15:51:23.334Z,4.13
2022-11-03T15:53:53.602Z,4.22
2022-11-03T15:56:25.070Z,3.65
2022-11-03T15:58:51.783Z,3.70
2022-11-03T16:01:18.590Z,3.72
2022-11-03T16:03:45.396Z,3.80
2022-11-03T16:06:12.054Z,3.55
2022-11-03T16:08:38.723Z,4.20
2022-11-03T16:11:05.444Z,4.65
2022-11-03T16:13:32.389Z,6.07
2022-11-03T16:15:59.040Z,5.40
2022-11-03T16:18:25.664Z,4.85
2022-11-03T16:20:52.279Z,5.20
2022-11-03T16:23:18.926Z,5.65
2022-11-03T16:25:45.610Z,5.68
2022-11-03T16:28:12.477Z,5.72
2022-11-03T16:30:39.148Z,5.65
2022-11-03T16:33:06.016Z,5.68
2022-11-03T16:35:32.832Z,5.97
2022-11-03T16:37:59.659Z,6.50
2022-11-03T16:40:26.457Z,5.75
2022-11-03T16:42:53.118Z,4.90
2022-11-03T16:45:22.206Z,5.93
2022-11-03T16:47:50.362Z,5.05
2022-11-03T16:50:18.030Z,4.75
2022-11-03T16:52:45.868Z,4.32
2022-11-03T16:55:13.025Z,3.85
2022-11-03T16:57:39.697Z,3.85
2022-11-03T17:00:09.507Z,3.90
2022-11-03T17:02:36.179Z,3.88
2022-11-03T17:05:03.607Z,4.53
2022-11-03T17:07:30.327Z,3.70
2022-11-03T17:09:57.003Z,4.18
2022-11-03T17:12:23.842Z,4.57
2022-11-03T17:14:52.665Z,4.63
2022-11-03T17:17:22.396Z,4.72
2022-11-03T17:19:49.101Z,5.28
2022-11-03T17:22:15.756Z,4.20
2022-11-03T17:24:42.965Z,4.85
2022-11-03T17:27:22.231Z,5.70
2022-11-03T17:30:00.460Z,5.50
2022-11-03T17:32:38.016Z,5.88
2022-11-03T17:35:11.216Z,5.15
2022-11-03T17:40:06.194Z,6.35
2022-11-03T17:42:32.998Z,6.40
2022-11-03T17:45:00.248Z,5.90
2022-11-03T17:47:26.946Z,5.32
2022-11-03T17:49:53.593Z,4.53
2022-11-03T17:52:26.789Z,4.93
2022-11-03T17:54:57.530Z,4.55
2022-11-03T17:57:25.445Z,4.65
2022-11-03T17:59:56.710Z,5.05
2022-11-03T18:02:25.555Z,4.72
2022-11-03T18:05:15.305Z,5.15
2022-11-03T18:07:45.373Z,4.88
2022-11-03T18:10:12.012Z,4.60
2022-11-03T18:12:59.698Z,5.10
2022-11-03T18:15:27.225Z,11.48
2022-11-03T18:17:54.054Z,12.80
2022-11-03T18:20:24.682Z,13.23
2022-11-03T18:22:52.526Z,11.32
2022-11-03T18:25:21.313Z,10.55
2022-11-03T18:27:48.009Z,9.93
2022-11-03T18:30:19.201Z,9.18
2022-11-03T18:32:46.093Z,14.70
2022-11-03T18:35:21.981Z,17.65
2022-11-03T18:37:48.947Z,15.65
2022-11-03T18:40:15.792Z,12.20
2022-11-03T18:42:42.700Z,8.02
2022-11-03T18:45:15.469Z,9.27
2022-11-03T18:47:42.813Z,9.77
2022-11-03T18:50:17.336Z,10.07
2022-11-03T18:52:48.082Z,9.85
2022-11-03T18:55:16.390Z,10.80
2022-11-03T18:57:43.626Z,12.07
2022-11-03T19:00:22.750Z,10.20
2022-11-03T19:02:50.431Z,8.43
2022-11-03T19:05:18.803Z,8.40
2022-11-03T19:07:48.046Z,7.20
2022-11-03T19:10:17.165Z,6.80
2022-11-03T19:12:44.396Z,6.70
2022-11-03T19:15:20.211Z,6.82
2022-11-03T19:17:48.736Z,9.50
2022-11-03T19:20:16.009Z,12.32
2022-11-03T19:22:42.731Z,10.13
2022-11-03T19:25:09.497Z,9.35
2022-11-03T19:27:38.731Z,11.60
2022-11-03T19:30:05.865Z,37.28
2022-11-03T19:32:40.522Z,17.75
2022-11-03T19:35:16.516Z,12.27
2022-11-03T19:37:43.269Z,8.50
2022-11-03T19:40:15.696Z,7.82
2022-11-03T19:42:42.454Z,6.57
2022-11-03T19:45:17.956Z,6.35
2022-11-03T19:50:46.050Z,6.88
2022-11-03T19:53:18.328Z,6.47
2022-11-03T19:55:45.359Z,11.60
2022-11-03T19:58:17.881Z,9.35
2022-11-03T20:00:45.176Z,7.35
2022-11-03T20:03:12.070Z,8.80
2022-11-03T20:05:42.794Z,7.95
2022-11-03T20:08:16.114Z,7.68
2022-11-03T20:10:48.902Z,12.25
2022-11-03T20:13:17.135Z,13.00
2022-11-03T20:15:43.994Z,14.73
2022-11-03T20:18:12.277Z,11.70
2022-11-03T20:20:40.485Z,10.60
2022-11-03T20:23:07.828Z,8.60
2022-11-03T20:25:35.736Z,10.00
2022-11-03T20:28:15.497Z,10.15
2022-11-03T20:30:42.154Z,14.32
2022-11-03T20:33:13.023Z,14.35
2022-11-03T20:35:39.937Z,13.00
2022-11-03T20:38:09.935Z,11.43
2022-11-03T20:40:37.077Z,9.98
2022-11-03T20:43:03.883Z,8.75
2022-11-03T20:45:30.701Z,10.05
2022-11-03T20:47:57.821Z,10.00
2022-11-03T20:50:25.297Z,10.80
2022-11-03T20:52:52.451Z,9.75
2022-11-03T20:55:21.399Z,11.52
2022-11-03T20:57:49.148Z,17.75
2022-11-03T21:00:21.389Z,15.77
2022-11-03T21:02:49.115Z,11.93
2022-11-03T21:05:18.736Z,11.15
2022-11-03T21:07:45.941Z,11.65
2022-11-03T21:10:19.288Z,10.88
2022-11-03T21:12:47.124Z,9.35
2022-11-03T21:15:34.661Z,8.93
2022-11-03T21:18:20.049Z,7.38
2022-11-03T21:20:47.080Z,8.27
2022-11-03T21:23:21.160Z,8.20
2022-11-03T21:25:49.074Z,8.45
2022-11-03T21:28:19.711Z,8.85
2022-11-03T21:30:48.414Z,9.30
2022-11-03T21:33:15.248Z,9.38
2022-11-03T21:35:43.000Z,10.13
2022-11-03T21:38:10.769Z,9.07
2022-11-03T21:40:56.238Z,9.40
2022-11-03T21:43:41.756Z,8.50
2022-11-03T21:46:10.358Z,8.50
2022-11-03T21:49:07.170Z,9.00
2022-11-03T21:51:33.815Z,9.95
2022-11-03T21:54:00.536Z,8.88
2022-11-03T21:56:27.184Z,9.73
2022-11-03T21:58:53.851Z,10.27
2022-11-03T22:01:20.671Z,9.88
2022-11-03T22:03:47.536Z,9.50
2022-11-03T22:06:14.176Z,8.70
2022-11-03T22:08:44.023Z,10.98
2022-11-03T22:11:22.823Z,9.25
2022-11-03T22:13:56.432Z,9.45
2022-11-03T22:16:42.472Z,7.45
2022-11-03T22:19:37.391Z,10.13
2022-11-03T22:22:25.030Z,10.27
2022-11-03T22:25:10.292Z,9.23
2022-11-03T22:27:37.000Z,9.88
2022-11-03T22:30:22.866Z,9.35
2022-11-03T22:32:51.111Z,8.00
2022-11-03T22:35:36.444Z,7.63
2022-11-03T22:38:14.677Z,7.72
2022-11-03T22:41:00.913Z,7.97
2022-11-03T22:43:47.102Z,7.28
2022-11-03T22:46:14.839Z,6.40
2022-11-03T22:48:41.513Z,5.95
2022-11-03T22:51:10.473Z,6.38
2022-11-03T22:53:56.358Z,6.00
2022-11-03T22:56:24.855Z,5.78
2022-11-03T22:58:51.884Z,5.57
2022-11-03T23:01:21.610Z,7.30
2022-11-03T23:03:49.386Z,6.13
2022-11-03T23:06:19.047Z,6.57
2022-11-03T23:08:48.521Z,6.70
2022-11-03T23:11:17.924Z,5.55
2022-11-03T23:13:46.000Z,5.32
2022-11-03T23:16:17.857Z,3.95
2022-11-03T23:19:03.661Z,3.60
2022-11-03T23:21:30.932Z,3.67
2022-11-03T23:24:16.355Z,4.07
2022-11-03T23:26:43.520Z,3.50
2022-11-03T23:29:13.202Z,3.55
2022-11-03T23:31:40.664Z,2.88
2022-11-03T23:34:08.059Z,2.60
2022-11-03T23:36:34.934Z,2.92
2022-11-03T23:39:02.111Z,1.92
2022-11-03T23:41:29.143Z,2.15
2022-11-03T23:43:56.215Z,2.05
2022-11-03T23:46:44.221Z,1.80
2022-11-03T23:49:11.379Z,1.83
2022-11-03T23:51:38.821Z,1.75
2022-11-03T23:54:07.083Z,1.63
2022-11-03T23:56:54.673Z,1.27
2022-11-03T23:59:21.717Z,1.38
